Louisville, KY (40223)

1:45 AM EDT op 23 mei 2015 (GMT -0400)
Lake Forest | | Change Station
CLOSE
Current Station
Persoonlijk weerstation
Location: Louisville, KY
Geometrische hoogte: 646 ft
Nabije weerstations

Hoogte 646 ft 38.25 °N, 85.49 °W | Updated 25 seconds ago

Gedeeltelijk bewolkt
Gedeeltelijk bewolkt
53.4 °F
Voelt als 53.4 °F
N
0.0
Wind Variabel Wind van NNO
Gusts 0.0 mijl/u

Vandaag
Hoog -- | Laag -- °F
--% Kans op neerslag
Gisteren
Hoog -- | Laag -- °F
Precip. -- inches
6:25 AM 8:52 PM
Wassende halvemaan, 27% visible
Druk 30.29 inches
Zicht 10.0 mijlen
Wolken Helder
Dauwpunt 53 °F
Vochtigheid 98%
Neerslag 0.00 inches
Dikte sneeuw Niet beschikbaar.
UV 0.0 van de 12
Pollen 7.50 van de 12
Luchtkwaliteit Niet beschikbaar.
Flu Activity Sporadic
METAR KLOU 230453Z AUTO 00000KT 10SM CLR 16/10 A3030 RMK AO2 SLP257 T01560100 402440061

More Conditions Fewer Conditions

Druk 30.29 inches
Zicht 10.0 mijlen
Wolken Helder
Dauwpunt 53 °F
Vochtigheid 98%
Neerslag 0.00 inches
Dikte sneeuw Niet beschikbaar.
UV 0.0 van de 12
Pollen 7.50 van de 12
Luchtkwaliteit Niet beschikbaar.
Flu Activity Sporadic
METAR KLOU 230453Z AUTO 00000KT 10SM CLR 16/10 A3030 RMK AO2 SLP257 T01560100 402440061

More Conditions Fewer Conditions

10-Day Weather Forecast

Almanac

Astronomie

May. 23, 2015 Opkomst Ondergang
Werkelijke tijd
Burgerlijke schemering
Nautische schemering
Astronomische schemering
Maan
Golflengte van het zichtbare licht
Daglengte
Tomorrow will be .
, % of the Moon is Illuminated

Extremen vandaag

State Highs State Lows

Community

WunderPhotos

Upload Photos

1,823,393 foto’s ge-upload!

WunderBlogs® & News

Nearby

Luchtkwaliteit

  Luchtkwaliteit LK-index Verontreinigende stof
Not available.

Dikte sneeuw

Station Depth Geometrische hoogte

Aardbevingen

Stad Distance Mag. Time & Date
Minimum magnitude displayed is 2.5.

Watertemperatuur langs de kust

Plaats Temperatuur

Stations

Nabije weerstations

Locatie station Temp. Gevoelstemperatuur Dauwpunt Vochtigheid Wind Precip. Hoogte Geactualiseerd Type